sensor_id;sensor_type;location;lat;lon;timestamp;P1;durP1;ratioP1;P2;durP2;ratioP2
51602;SDS011;37954;51.980;5.850;2022-07-06T00:00:45;1.38;;;1.20;;
51602;SDS011;37954;51.980;5.850;2022-07-06T00:04:57;1.88;;;1.15;;
51602;SDS011;37954;51.980;5.850;2022-07-06T00:09:09;1.45;;;1.10;;
51602;SDS011;37954;51.980;5.850;2022-07-06T00:13:20;1.20;;;1.10;;
51602;SDS011;37954;51.980;5.850;2022-07-06T00:17:32;1.17;;;0.93;;
51602;SDS011;37954;51.980;5.850;2022-07-06T00:21:44;0.80;;;0.80;;
51602;SDS011;37954;51.980;5.850;2022-07-06T00:25:55;1.05;;;0.95;;
51602;SDS011;37954;51.980;5.850;2022-07-06T00:30:07;1.23;;;1.13;;
51602;SDS011;37954;51.980;5.850;2022-07-06T00:34:19;1.30;;;1.10;;
51602;SDS011;37954;51.980;5.850;2022-07-06T00:38:30;1.15;;;1.05;;
51602;SDS011;37954;51.980;5.850;2022-07-06T00:42:43;1.80;;;1.20;;
51602;SDS011;37954;51.980;5.850;2022-07-06T00:46:56;1.00;;;0.90;;
51602;SDS011;37954;51.980;5.850;2022-07-06T00:51:07;2.00;;;1.10;;
51602;SDS011;37954;51.980;5.850;2022-07-06T00:55:22;1.20;;;1.10;;
51602;SDS011;37954;51.980;5.850;2022-07-06T00:59:35;9.85;;;1.33;;
51602;SDS011;37954;51.980;5.850;2022-07-06T01:03:47;1.50;;;0.97;;
51602;SDS011;37954;51.980;5.850;2022-07-06T01:07:58;1.57;;;1.17;;
51602;SDS011;37954;51.980;5.850;2022-07-06T01:12:12;3.47;;;1.53;;
51602;SDS011;37954;51.980;5.850;2022-07-06T01:16:27;1.20;;;1.10;;
51602;SDS011;37954;51.980;5.850;2022-07-06T01:21:14;1.23;;;1.10;;
51602;SDS011;37954;51.980;5.850;2022-07-06T01:25:38;1.37;;;1.17;;
51602;SDS011;37954;51.980;5.850;2022-07-06T01:29:52;5.60;;;1.50;;
51602;SDS011;37954;51.980;5.850;2022-07-06T01:34:06;0.80;;;0.80;;
51602;SDS011;37954;51.980;5.850;2022-07-06T01:38:29;1.80;;;1.17;;
51602;SDS011;37954;51.980;5.850;2022-07-06T01:42:44;1.50;;;0.90;;
51602;SDS011;37954;51.980;5.850;2022-07-06T01:46:55;2.10;;;1.20;;
51602;SDS011;37954;51.980;5.850;2022-07-06T01:51:10;1.52;;;1.00;;
51602;SDS011;37954;51.980;5.850;2022-07-06T01:55:24;1.43;;;1.10;;
51602;SDS011;37954;51.980;5.850;2022-07-06T01:59:38;1.87;;;0.90;;
51602;SDS011;37954;51.980;5.850;2022-07-06T02:03:51;1.27;;;0.97;;
51602;SDS011;37954;51.980;5.850;2022-07-06T02:08:17;1.50;;;1.20;;
51602;SDS011;37954;51.980;5.850;2022-07-06T02:12:57;1.97;;;1.20;;
51602;SDS011;37954;51.980;5.850;2022-07-06T02:17:18;1.40;;;1.30;;
51602;SDS011;37954;51.980;5.850;2022-07-06T02:21:31;1.07;;;0.97;;
51602;SDS011;37954;51.980;5.850;2022-07-06T02:25:53;1.93;;;1.33;;
51602;SDS011;37954;51.980;5.850;2022-07-06T02:30:14;1.73;;;1.20;;
51602;SDS011;37954;51.980;5.850;2022-07-06T02:34:26;2.23;;;1.30;;
51602;SDS011;37954;51.980;5.850;2022-07-06T02:38:47;1.40;;;1.20;;
51602;SDS011;37954;51.980;5.850;2022-07-06T02:43:02;1.60;;;1.23;;
51602;SDS011;37954;51.980;5.850;2022-07-06T02:47:21;1.40;;;0.90;;
51602;SDS011;37954;51.980;5.850;2022-07-06T02:51:39;1.47;;;1.17;;
51602;SDS011;37954;51.980;5.850;2022-07-06T02:56:04;1.63;;;0.83;;
51602;SDS011;37954;51.980;5.850;2022-07-06T03:00:38;2.43;;;1.03;;
51602;SDS011;37954;51.980;5.850;2022-07-06T03:04:59;1.77;;;1.10;;
51602;SDS011;37954;51.980;5.850;2022-07-06T03:09:15;1.70;;;1.10;;
51602;SDS011;37954;51.980;5.850;2022-07-06T03:13:27;0.60;;;0.60;;
51602;SDS011;37954;51.980;5.850;2022-07-06T03:17:47;1.77;;;1.40;;
51602;SDS011;37954;51.980;5.850;2022-07-06T03:22:07;1.03;;;0.93;;
51602;SDS011;37954;51.980;5.850;2022-07-06T03:26:30;0.70;;;0.70;;
51602;SDS011;37954;51.980;5.850;2022-07-06T03:30:42;1.37;;;1.00;;
51602;SDS011;37954;51.980;5.850;2022-07-06T03:35:06;0.90;;;0.90;;
51602;SDS011;37954;51.980;5.850;2022-07-06T03:39:31;1.00;;;0.90;;
51602;SDS011;37954;51.980;5.850;2022-07-06T03:43:49;1.27;;;0.93;;
51602;SDS011;37954;51.980;5.850;2022-07-06T03:48:04;1.13;;;1.00;;
51602;SDS011;37954;51.980;5.850;2022-07-06T04:07:31;7.10;;;1.03;;
51602;SDS011;37954;51.980;5.850;2022-07-06T04:13:17;2.08;;;1.00;;
51602;SDS011;37954;51.980;5.850;2022-07-06T04:17:56;0.88;;;0.88;;
51602;SDS011;37954;51.980;5.850;2022-07-06T04:22:38;2.58;;;0.85;;
51602;SDS011;37954;51.980;5.850;2022-07-06T04:26:50;1.60;;;1.05;;
51602;SDS011;37954;51.980;5.850;2022-07-06T04:31:02;1.48;;;0.98;;
51602;SDS011;37954;51.980;5.850;2022-07-06T04:35:14;1.20;;;1.08;;
51602;SDS011;37954;51.980;5.850;2022-07-06T04:39:28;3.47;;;1.35;;
51602;SDS011;37954;51.980;5.850;2022-07-06T04:43:42;1.00;;;0.90;;
51602;SDS011;37954;51.980;5.850;2022-07-06T04:47:58;1.25;;;1.02;;
51602;SDS011;37954;51.980;5.850;2022-07-06T04:52:10;2.10;;;0.85;;
51602;SDS011;37954;51.980;5.850;2022-07-06T04:56:22;1.00;;;0.90;;
51602;SDS011;37954;51.980;5.850;2022-07-06T05:00:34;1.10;;;0.90;;
51602;SDS011;37954;51.980;5.850;2022-07-06T06:30:15;1.17;;;0.88;;
51602;SDS011;37954;51.980;5.850;2022-07-06T06:34:30;0.80;;;0.77;;
51602;SDS011;37954;51.980;5.850;2022-07-06T06:38:41;0.73;;;0.73;;
51602;SDS011;37954;51.980;5.850;2022-07-06T06:42:53;2.95;;;1.10;;
51602;SDS011;37954;51.980;5.850;2022-07-06T06:47:06;0.85;;;0.85;;
51602;SDS011;37954;51.980;5.850;2022-07-06T06:51:26;0.60;;;0.60;;
51602;SDS011;37954;51.980;5.850;2022-07-06T07:28:26;1.05;;;0.93;;
51602;SDS011;37954;51.980;5.850;2022-07-06T07:32:47;0.70;;;0.70;;
51602;SDS011;37954;51.980;5.850;2022-07-06T07:37:05;0.55;;;0.55;;
51602;SDS011;37954;51.980;5.850;2022-07-06T07:41:16;4.20;;;1.00;;
51602;SDS011;37954;51.980;5.850;2022-07-06T08:34:17;0.50;;;0.50;;
51602;SDS011;37954;51.980;5.850;2022-07-06T08:38:31;0.80;;;0.77;;
51602;SDS011;37954;51.980;5.850;2022-07-06T08:42:43;0.70;;;0.70;;
51602;SDS011;37954;51.980;5.850;2022-07-06T08:46:57;0.77;;;0.77;;
51602;SDS011;37954;51.980;5.850;2022-07-06T08:51:15;0.80;;;0.80;;
51602;SDS011;37954;51.980;5.850;2022-07-06T09:12:21;2.60;;;0.70;;
51602;SDS011;37954;51.980;5.850;2022-07-06T09:16:36;0.55;;;0.55;;
51602;SDS011;37954;51.980;5.850;2022-07-06T09:20:51;0.70;;;0.70;;
51602;SDS011;37954;51.980;5.850;2022-07-06T09:25:12;0.50;;;0.50;;
51602;SDS011;37954;51.980;5.850;2022-07-06T09:29:31;0.88;;;0.73;;
51602;SDS011;37954;51.980;5.850;2022-07-06T09:33:59;0.57;;;0.57;;
51602;SDS011;37954;51.980;5.850;2022-07-06T09:38:14;0.50;;;0.50;;
51602;SDS011;37954;51.980;5.850;2022-07-06T09:42:28;0.55;;;0.52;;
51602;SDS011;37954;51.980;5.850;2022-07-06T09:46:46;0.73;;;0.50;;
51602;SDS011;37954;51.980;5.850;2022-07-06T09:51:01;0.70;;;0.70;;
51602;SDS011;37954;51.980;5.850;2022-07-06T09:55:21;0.40;;;0.40;;
51602;SDS011;37954;51.980;5.850;2022-07-06T09:59:40;0.60;;;0.60;;
51602;SDS011;37954;51.980;5.850;2022-07-06T10:04:01;1.30;;;0.60;;
51602;SDS011;37954;51.980;5.850;2022-07-06T10:08:13;0.63;;;0.50;;
51602;SDS011;37954;51.980;5.850;2022-07-06T10:12:26;1.17;;;0.90;;
51602;SDS011;37954;51.980;5.850;2022-07-06T10:16:38;0.77;;;0.77;;
51602;SDS011;37954;51.980;5.850;2022-07-06T10:20:53;0.40;;;0.40;;
51602;SDS011;37954;51.980;5.850;2022-07-06T10:25:19;0.85;;;0.80;;
51602;SDS011;37954;51.980;5.850;2022-07-06T10:29:30;0.73;;;0.70;;
51602;SDS011;37954;51.980;5.850;2022-07-06T10:33:45;1.25;;;0.90;;
51602;SDS011;37954;51.980;5.850;2022-07-06T10:38:57;1.02;;;0.80;;
51602;SDS011;37954;51.980;5.850;2022-07-06T10:52:26;0.70;;;0.70;;
51602;SDS011;37954;51.980;5.850;2022-07-06T10:57:24;0.63;;;0.63;;
51602;SDS011;37954;51.980;5.850;2022-07-06T11:01:42;3.13;;;0.70;;
51602;SDS011;37954;51.980;5.850;2022-07-06T11:06:27;0.90;;;0.90;;
51602;SDS011;37954;51.980;5.850;2022-07-06T11:10:47;0.93;;;0.85;;
51602;SDS011;37954;51.980;5.850;2022-07-06T11:14:59;0.65;;;0.65;;
51602;SDS011;37954;51.980;5.850;2022-07-06T11:19:16;0.93;;;0.85;;
51602;SDS011;37954;51.980;5.850;2022-07-06T11:23:29;19.85;;;1.10;;
51602;SDS011;37954;51.980;5.850;2022-07-06T11:27:42;1.20;;;0.88;;
51602;SDS011;37954;51.980;5.850;2022-07-06T11:31:57;0.95;;;0.77;;
51602;SDS011;37954;51.980;5.850;2022-07-06T11:36:19;0.82;;;0.70;;
51602;SDS011;37954;51.980;5.850;2022-07-06T11:40:36;1.17;;;0.98;;
51602;SDS011;37954;51.980;5.850;2022-07-06T11:44:48;0.60;;;0.60;;
51602;SDS011;37954;51.980;5.850;2022-07-06T11:49:09;1.10;;;1.00;;
51602;SDS011;37954;51.980;5.850;2022-07-06T11:53:20;0.75;;;0.75;;
51602;SDS011;37954;51.980;5.850;2022-07-06T12:02:11;1.08;;;0.98;;
51602;SDS011;37954;51.980;5.850;2022-07-06T12:06:26;0.80;;;0.80;;
51602;SDS011;37954;51.980;5.850;2022-07-06T12:10:38;0.75;;;0.75;;
51602;SDS011;37954;51.980;5.850;2022-07-06T12:14:49;3.25;;;1.08;;
51602;SDS011;37954;51.980;5.850;2022-07-06T12:19:07;0.73;;;0.73;;
51602;SDS011;37954;51.980;5.850;2022-07-06T12:23:19;0.70;;;0.70;;
51602;SDS011;37954;51.980;5.850;2022-07-06T13:08:05;0.70;;;0.70;;
51602;SDS011;37954;51.980;5.850;2022-07-06T13:12:16;0.50;;;0.50;;
51602;SDS011;37954;51.980;5.850;2022-07-06T13:16:28;1.42;;;0.57;;
51602;SDS011;37954;51.980;5.850;2022-07-06T13:20:45;0.95;;;0.93;;
51602;SDS011;37954;51.980;5.850;2022-07-06T13:24:57;2.08;;;0.82;;
51602;SDS011;37954;51.980;5.850;2022-07-06T13:29:09;1.20;;;0.95;;
51602;SDS011;37954;51.980;5.850;2022-07-06T13:33:22;0.60;;;0.60;;
51602;SDS011;37954;51.980;5.850;2022-07-06T13:37:34;0.75;;;0.75;;
51602;SDS011;37954;51.980;5.850;2022-07-06T13:41:46;0.93;;;0.93;;
51602;SDS011;37954;51.980;5.850;2022-07-06T13:45:58;0.50;;;0.50;;
51602;SDS011;37954;51.980;5.850;2022-07-06T13:50:10;0.80;;;0.80;;
51602;SDS011;37954;51.980;5.850;2022-07-06T13:54:22;0.65;;;0.65;;
51602;SDS011;37954;51.980;5.850;2022-07-06T13:58:35;0.63;;;0.63;;
51602;SDS011;37954;51.980;5.850;2022-07-06T14:02:47;0.77;;;0.68;;
51602;SDS011;37954;51.980;5.850;2022-07-06T14:06:59;2.55;;;1.33;;
51602;SDS011;37954;51.980;5.850;2022-07-06T14:11:12;0.82;;;0.82;;
51602;SDS011;37954;51.980;5.850;2022-07-06T14:15:23;0.50;;;0.50;;
51602;SDS011;37954;51.980;5.850;2022-07-06T14:19:35;0.52;;;0.52;;
51602;SDS011;37954;51.980;5.850;2022-07-06T14:23:47;0.70;;;0.70;;
51602;SDS011;37954;51.980;5.850;2022-07-06T14:32:36;0.57;;;0.57;;
51602;SDS011;37954;51.980;5.850;2022-07-06T14:36:47;1.52;;;0.95;;
51602;SDS011;37954;51.980;5.850;2022-07-06T14:40:59;0.80;;;0.80;;
51602;SDS011;37954;51.980;5.850;2022-07-06T14:45:11;0.95;;;0.60;;
51602;SDS011;37954;51.980;5.850;2022-07-06T14:49:22;0.80;;;0.70;;
51602;SDS011;37954;51.980;5.850;2022-07-06T14:53:34;0.77;;;0.77;;
51602;SDS011;37954;51.980;5.850;2022-07-06T14:57:46;0.63;;;0.63;;
51602;SDS011;37954;51.980;5.850;2022-07-06T15:01:58;0.68;;;0.55;;
51602;SDS011;37954;51.980;5.850;2022-07-06T15:06:10;0.75;;;0.75;;
51602;SDS011;37954;51.980;5.850;2022-07-06T15:10:42;0.80;;;0.80;;
51602;SDS011;37954;51.980;5.850;2022-07-06T15:14:53;1.02;;;0.90;;
51602;SDS011;37954;51.980;5.850;2022-07-06T15:19:05;0.90;;;0.80;;
51602;SDS011;37954;51.980;5.850;2022-07-06T15:23:18;2.10;;;1.10;;
51602;SDS011;37954;51.980;5.850;2022-07-06T15:27:30;1.23;;;1.13;;
51602;SDS011;37954;51.980;5.850;2022-07-06T15:31:42;2.30;;;1.08;;
51602;SDS011;37954;51.980;5.850;2022-07-06T15:35:53;1.33;;;1.00;;
51602;SDS011;37954;51.980;5.850;2022-07-06T15:40:05;1.02;;;1.00;;
51602;SDS011;37954;51.980;5.850;2022-07-06T15:44:23;1.35;;;1.20;;
51602;SDS011;37954;51.980;5.850;2022-07-06T15:48:34;1.58;;;1.35;;
51602;SDS011;37954;51.980;5.850;2022-07-06T15:52:46;1.50;;;1.17;;
51602;SDS011;37954;51.980;5.850;2022-07-06T15:56:58;1.23;;;1.08;;
51602;SDS011;37954;51.980;5.850;2022-07-06T16:01:11;1.00;;;0.90;;
51602;SDS011;37954;51.980;5.850;2022-07-06T16:05:23;1.13;;;1.02;;
51602;SDS011;37954;51.980;5.850;2022-07-06T16:09:35;1.20;;;0.90;;
51602;SDS011;37954;51.980;5.850;2022-07-06T16:13:47;2.03;;;1.20;;
51602;SDS011;37954;51.980;5.850;2022-07-06T16:18:07;0.95;;;0.90;;
51602;SDS011;37954;51.980;5.850;2022-07-06T16:22:18;1.67;;;1.40;;
51602;SDS011;37954;51.980;5.850;2022-07-06T16:26:30;1.80;;;1.00;;
51602;SDS011;37954;51.980;5.850;2022-07-06T16:30:41;1.20;;;1.10;;
51602;SDS011;37954;51.980;5.850;2022-07-06T16:34:56;1.80;;;1.20;;
51602;SDS011;37954;51.980;5.850;2022-07-06T16:39:08;1.40;;;1.30;;
51602;SDS011;37954;51.980;5.850;2022-07-06T16:43:19;2.25;;;1.27;;
51602;SDS011;37954;51.980;5.850;2022-07-06T16:47:31;14.90;;;1.10;;
51602;SDS011;37954;51.980;5.850;2022-07-06T16:51:43;1.10;;;1.00;;
51602;SDS011;37954;51.980;5.850;2022-07-06T16:55:55;1.13;;;0.98;;
51602;SDS011;37954;51.980;5.850;2022-07-06T17:00:21;3.42;;;1.38;;
51602;SDS011;37954;51.980;5.850;2022-07-06T17:04:35;1.25;;;1.15;;
51602;SDS011;37954;51.980;5.850;2022-07-06T17:08:51;1.83;;;1.30;;
51602;SDS011;37954;51.980;5.850;2022-07-06T17:13:13;8.00;;;1.20;;
51602;SDS011;37954;51.980;5.850;2022-07-06T17:17:26;1.77;;;1.30;;
51602;SDS011;37954;51.980;5.850;2022-07-06T17:21:46;2.72;;;1.30;;
51602;SDS011;37954;51.980;5.850;2022-07-06T17:26:04;1.15;;;1.05;;
51602;SDS011;37954;51.980;5.850;2022-07-06T17:30:23;1.25;;;1.10;;
51602;SDS011;37954;51.980;5.850;2022-07-06T17:34:36;1.45;;;1.17;;
51602;SDS011;37954;51.980;5.850;2022-07-06T17:38:49;1.40;;;1.30;;
51602;SDS011;37954;51.980;5.850;2022-07-06T20:01:23;1.80;;;1.40;;
51602;SDS011;37954;51.980;5.850;2022-07-06T20:12:34;1.45;;;1.35;;
51602;SDS011;37954;51.980;5.850;2022-07-06T20:18:13;1.27;;;1.17;;
51602;SDS011;37954;51.980;5.850;2022-07-06T20:23:26;1.45;;;1.33;;
51602;SDS011;37954;51.980;5.850;2022-07-06T20:28:00;1.58;;;1.13;;
51602;SDS011;37954;51.980;5.850;2022-07-06T20:33:03;1.83;;;1.20;;
51602;SDS011;37954;51.980;5.850;2022-07-06T20:37:58;1.17;;;1.08;;
51602;SDS011;37954;51.980;5.850;2022-07-06T20:42:09;1.40;;;1.30;;
51602;SDS011;37954;51.980;5.850;2022-07-06T20:46:21;1.48;;;1.02;;
51602;SDS011;37954;51.980;5.850;2022-07-06T20:50:33;1.95;;;1.30;;
51602;SDS011;37954;51.980;5.850;2022-07-06T20:54:45;1.27;;;1.17;;
51602;SDS011;37954;51.980;5.850;2022-07-06T20:59:00;1.35;;;1.25;;
51602;SDS011;37954;51.980;5.850;2022-07-06T21:03:23;1.55;;;1.30;;
51602;SDS011;37954;51.980;5.850;2022-07-06T21:07:41;5.18;;;1.30;;
51602;SDS011;37954;51.980;5.850;2022-07-06T21:11:54;1.70;;;1.50;;
51602;SDS011;37954;51.980;5.850;2022-07-06T21:16:11;2.17;;;1.63;;
51602;SDS011;37954;51.980;5.850;2022-07-06T21:20:27;2.60;;;1.38;;
51602;SDS011;37954;51.980;5.850;2022-07-06T21:24:39;2.30;;;1.52;;
51602;SDS011;37954;51.980;5.850;2022-07-06T21:28:51;1.70;;;1.15;;
51602;SDS011;37954;51.980;5.850;2022-07-06T21:33:10;1.85;;;1.20;;
51602;SDS011;37954;51.980;5.850;2022-07-06T21:37:22;2.53;;;1.40;;
51602;SDS011;37954;51.980;5.850;2022-07-06T21:41:36;1.95;;;1.23;;
51602;SDS011;37954;51.980;5.850;2022-07-06T21:45:49;2.13;;;1.92;;
51602;SDS011;37954;51.980;5.850;2022-07-06T21:50:28;1.60;;;1.50;;
51602;SDS011;37954;51.980;5.850;2022-07-06T21:54:43;1.73;;;1.60;;
51602;SDS011;37954;51.980;5.850;2022-07-06T21:58:55;2.08;;;1.98;;
51602;SDS011;37954;51.980;5.850;2022-07-06T22:03:15;2.30;;;2.10;;
51602;SDS011;37954;51.980;5.850;2022-07-06T22:07:27;2.33;;;2.13;;
51602;SDS011;37954;51.980;5.850;2022-07-06T22:11:45;2.30;;;2.10;;
51602;SDS011;37954;51.980;5.850;2022-07-06T22:15:58;2.17;;;1.98;;
51602;SDS011;37954;51.980;5.850;2022-07-06T22:20:11;2.20;;;1.98;;
51602;SDS011;37954;51.980;5.850;2022-07-06T22:24:23;2.58;;;2.20;;
51602;SDS011;37954;51.980;5.850;2022-07-06T22:28:35;7.60;;;2.63;;
51602;SDS011;37954;51.980;5.850;2022-07-06T22:32:50;2.97;;;1.70;;
51602;SDS011;37954;51.980;5.850;2022-07-06T22:37:09;2.60;;;2.00;;
51602;SDS011;37954;51.980;5.850;2022-07-06T22:41:25;2.15;;;1.95;;
51602;SDS011;37954;51.980;5.850;2022-07-06T22:45:37;2.08;;;1.70;;
51602;SDS011;37954;51.980;5.850;2022-07-06T22:49:49;1.75;;;1.65;;
51602;SDS011;37954;51.980;5.850;2022-07-06T22:54:04;1.83;;;1.73;;
51602;SDS011;37954;51.980;5.850;2022-07-06T22:58:17;2.10;;;1.90;;
51602;SDS011;37954;51.980;5.850;2022-07-06T23:02:29;2.00;;;1.90;;
51602;SDS011;37954;51.980;5.850;2022-07-06T23:06:44;1.92;;;1.83;;
51602;SDS011;37954;51.980;5.850;2022-07-06T23:11:05;2.42;;;1.92;;
51602;SDS011;37954;51.980;5.850;2022-07-06T23:15:17;2.78;;;2.58;;
51602;SDS011;37954;51.980;5.850;2022-07-06T23:19:29;2.83;;;2.22;;
51602;SDS011;37954;51.980;5.850;2022-07-06T23:23:41;2.42;;;2.22;;
51602;SDS011;37954;51.980;5.850;2022-07-06T23:27:53;2.30;;;2.10;;
51602;SDS011;37954;51.980;5.850;2022-07-06T23:32:08;2.58;;;2.38;;
51602;SDS011;37954;51.980;5.850;2022-07-06T23:36:21;3.33;;;2.70;;
51602;SDS011;37954;51.980;5.850;2022-07-06T23:40:34;2.88;;;2.67;;
51602;SDS011;37954;51.980;5.850;2022-07-06T23:44:46;3.08;;;2.78;;
51602;SDS011;37954;51.980;5.850;2022-07-06T23:48:58;3.40;;;3.10;;
51602;SDS011;37954;51.980;5.850;2022-07-06T23:53:10;3.30;;;3.00;;
51602;SDS011;37954;51.980;5.850;2022-07-06T23:57:32;4.80;;;3.45;;
